Time;durP1;ratioP1;P1;durP2;ratioP2;P2;SDS_P1;SDS_P2;PMS_P1;PMS_P2;Temp;Humidity;BMP_temperature;BMP_pressure;BME280_temperature;BME280_humidity;BME280_pressure;Samples;Min_cycle;Max_cycle;Signal;HPM_P1;HPM_P2
2023/11/29 00:00:16;;;;;;;28.50;19.90;;;;;;;-2.97;100.00;100535.63;5094210;28;20280;-66
2023/11/29 00:02:42;;;;;;;22.30;18.27;;;;;;;-3.12;100.00;100510.41;5094117;28;20358;-65
2023/11/29 00:05:12;;;;;;;25.10;18.93;;;;;;;-2.99;100.00;100540.09;5094446;28;20487;-64
2023/11/29 00:07:43;;;;;;;23.02;18.40;;;;;;;-3.11;100.00;100506.88;5092928;28;20035;-66
2023/11/29 00:10:10;;;;;;;24.70;17.60;;;;;;;-2.91;100.00;100529.25;5093973;28;20063;-65
2023/11/29 00:12:36;;;;;;;22.10;16.73;;;;;;;-2.77;100.00;100551.97;5093666;28;20403;-66
2023/11/29 00:15:02;;;;;;;26.83;19.20;;;;;;;-3.64;100.00;100403.81;5093925;28;20268;-65
2023/11/29 00:17:31;;;;;;;13.45;11.43;;;;;;;-3.06;100.00;100543.94;5093831;28;20036;-66
2023/11/29 00:19:57;;;;;;;9.90;6.83;;;;;;;-3.19;100.00;100543.72;5093823;28;20135;-66
2023/11/29 00:22:23;;;;;;;9.03;6.83;;;;;;;-3.39;100.00;100527.50;5093631;28;20032;-66
2023/11/29 00:24:49;;;;;;;9.37;6.40;;;;;;;-3.40;100.00;100537.06;5109119;28;20332;-65
2023/11/29 00:27:15;;;;;;;9.90;7.17;;;;;;;-3.54;100.00;100514.31;5093545;28;20553;-66
2023/11/29 00:29:41;;;;;;;10.10;8.43;;;;;;;-3.27;100.00;100566.75;5093571;28;20035;-65
2023/11/29 00:32:06;;;;;;;11.37;9.57;;;;;;;-3.52;100.00;100522.91;5093879;28;20277;-65
2023/11/29 00:34:32;;;;;;;17.13;11.10;;;;;;;-3.41;100.00;100544.94;5093390;28;20152;-64
2023/11/29 00:36:58;;;;;;;12.93;9.77;;;;;;;-3.27;100.00;100564.13;5075206;28;20031;-66
2023/11/29 00:39:24;;;;;;;11.93;9.43;;;;;;;-3.28;100.00;100553.78;5093096;28;20483;-65
2023/11/29 00:41:49;;;;;;;10.63;8.23;;;;;;;-3.16;100.00;100555.78;5093395;28;20475;-67
2023/11/29 00:44:15;;;;;;;8.43;7.10;;;;;;;-3.29;100.00;100533.88;5092069;28;20089;-65
2023/11/29 00:46:41;;;;;;;8.70;6.13;;;;;;;-3.06;100.00;100575.19;5093107;28;20039;-67
2023/11/29 00:49:07;;;;;;;9.30;7.13;;;;;;;-3.17;100.00;100554.09;5093092;28;20043;-65
2023/11/29 00:51:33;;;;;;;8.10;6.63;;;;;;;-3.17;100.00;100554.09;5093210;28;20048;-65
2023/11/29 00:53:58;;;;;;;10.20;7.23;;;;;;;-3.20;100.00;100560.28;5093193;28;20093;-66
2023/11/29 00:56:24;;;;;;;11.40;7.80;;;;;;;-3.04;100.00;100580.34;5091523;28;20258;-65
2023/11/29 00:58:50;;;;;;;11.90;8.83;;;;;;;-3.03;100.00;100587.22;5093511;28;20056;-66
2023/11/29 01:01:16;;;;;;;13.30;9.43;;;;;;;-3.02;100.00;100584.53;5093068;28;20036;-66
2023/11/29 01:03:42;;;;;;;8.90;5.93;;;;;;;-3.27;100.00;100553.72;5092897;28;20068;-66
2023/11/29 01:06:08;;;;;;;10.18;6.78;;;;;;;-3.43;99.57;100558.06;5092800;28;20391;-64
2023/11/29 01:08:34;;;;;;;7.77;5.63;;;;;;;-3.61;100.00;100532.94;5092775;28;20028;-66
2023/11/29 01:10:59;;;;;;;7.80;6.10;;;;;;;-3.52;100.00;100559.34;5092727;28;20040;-65
2023/11/29 01:13:28;;;;;;;7.70;6.00;;;;;;;-3.49;100.00;100567.00;5093071;28;20063;-66
2023/11/29 01:15:53;;;;;;;6.80;5.53;;;;;;;-3.26;100.00;100580.59;5092760;28;20028;-66
2023/11/29 01:18:20;;;;;;;9.13;7.10;;;;;;;-3.22;100.00;100588.16;5092384;28;20085;-66
2023/11/29 01:20:47;;;;;;;7.80;5.55;;;;;;;-3.32;100.00;100586.13;5092320;28;20039;-66
2023/11/29 01:23:12;;;;;;;8.48;5.90;;;;;;;-3.31;100.00;100599.06;5108812;28;20081;-65
2023/11/29 01:25:38;;;;;;;9.33;6.83;;;;;;;-3.44;100.00;100585.84;5091493;28;20116;-65
2023/11/29 01:28:06;;;;;;;9.33;6.27;;;;;;;-3.22;100.00;100600.34;5092163;28;20035;-65
2023/11/29 01:30:34;;;;;;;8.48;5.80;;;;;;;-3.26;100.00;100591.03;5091227;28;20051;-66
2023/11/29 01:33:00;;;;;;;6.53;5.75;;;;;;;-3.11;100.00;100603.25;5092298;28;20105;-65
2023/11/29 01:35:26;;;;;;;7.80;6.70;;;;;;;-3.25;100.00;100582.28;5092621;28;20495;-66
2023/11/29 01:37:51;;;;;;;5.67;5.07;;;;;;;-3.21;99.08;100615.06;5092302;28;20123;-65
2023/11/29 01:40:18;;;;;;;5.67;4.97;;;;;;;-3.35;98.78;100591.50;5092189;28;20491;-65
2023/11/29 01:42:43;;;;;;;7.97;5.22;;;;;;;-3.56;99.83;100573.44;5091835;28;20161;-65
2023/11/29 01:45:09;;;;;;;5.93;4.93;;;;;;;-3.30;100.00;100616.38;5091826;28;20431;-64
2023/11/29 01:47:39;;;;;;;6.28;5.05;;;;;;;-3.28;100.00;100611.94;5092084;28;20039;-65
2023/11/29 01:50:08;;;;;;;6.35;4.75;;;;;;;-3.25;100.00;100616.97;5092075;28;20536;-67
2023/11/29 01:52:34;;;;;;;5.90;5.07;;;;;;;-3.32;100.00;100600.00;5092113;28;20040;-66
2023/11/29 01:55:01;;;;;;;9.18;5.07;;;;;;;-3.21;100.00;100631.53;5092225;28;20130;-66
2023/11/29 01:57:30;;;;;;;9.75;6.38;;;;;;;-3.26;100.00;100632.69;5091825;28;20028;-66
2023/11/29 01:59:55;;;;;;;6.57;5.27;;;;;;;-3.46;99.90;100603.31;5092106;28;20058;-65
2023/11/29 02:02:22;;;;;;;8.13;5.93;;;;;;;-3.37;100.00;100641.06;5091964;28;20427;-63
2023/11/29 02:04:50;;;;;;;7.28;4.75;;;;;;;-3.36;100.00;100641.91;5091711;28;20051;-65
2023/11/29 02:07:16;;;;;;;5.40;4.78;;;;;;;-3.32;100.00;100644.25;5092339;28;20131;-64
2023/11/29 02:09:42;;;;;;;6.63;5.47;;;;;;;-3.28;100.00;100640.56;5092349;28;20483;-65
2023/11/29 02:12:08;;;;;;;9.00;5.03;;;;;;;-3.30;100.00;100621.59;5092085;28;20548;-66
2023/11/29 02:14:39;;;;;;;5.90;5.30;;;;;;;-3.28;99.71;100618.91;5092481;28;20402;-68
2023/11/29 02:17:05;;;;;;;6.47;5.18;;;;;;;-3.34;99.50;100621.81;5091939;28;20036;-64
2023/11/29 02:19:32;;;;;;;8.03;5.40;;;;;;;-3.32;100.00;100633.00;5108055;28;20038;-67
2023/11/29 02:22:18;;;;;;;6.75;5.38;;;;;;;-3.21;100.00;100646.31;5111368;28;20434;-65
2023/11/29 02:24:47;;;;;;;7.30;5.90;;;;;;;-3.42;100.00;100597.94;5102125;28;20040;-67
2023/11/29 02:27:13;;;;;;;;;;;;;;;-2.92;100.00;100652.63;5102491;28;20036;-65
2023/11/29 02:29:39;;;;;;;6.60;4.97;;;;;;;-3.09;99.59;100639.66;5104108;28;20000;-66
2023/11/29 02:32:06;;;;;;;5.72;5.10;;;;;;;-3.23;98.70;100641.19;5092995;28;20032;-65
2023/11/29 02:34:31;;;;;;;6.88;5.15;;;;;;;-3.76;99.88;100578.78;5091830;28;20047;-67
2023/11/29 02:36:57;;;;;;;7.13;5.57;;;;;;;-3.50;100.00;100635.59;5091737;28;20040;-66
2023/11/29 02:39:22;;;;;;;8.97;7.30;;;;;;;-3.42;100.00;100652.63;5088336;28;20040;-65
2023/11/29 02:41:48;;;;;;;7.80;6.23;;;;;;;-3.45;100.00;100654.47;5091380;28;20032;-66
2023/11/29 02:44:13;;;;;;;7.60;5.70;;;;;;;-3.32;100.00;100669.47;5106901;28;20403;-67
2023/11/29 02:46:39;;;;;;;8.80;6.60;;;;;;;-3.56;100.00;100645.47;5091522;28;20040;-67
2023/11/29 02:49:05;;;;;;;10.40;7.17;;;;;;;-3.37;100.00;100668.84;5091122;28;20498;-65
2023/11/29 02:51:31;;;;;;;7.83;6.33;;;;;;;-3.22;100.00;100660.25;5091300;28;20043;-66
2023/11/29 02:53:56;;;;;;;7.40;6.40;;;;;;;-3.15;100.00;100665.09;5091303;28;20131;-65
2023/11/29 02:56:22;;;;;;;11.10;6.23;;;;;;;-3.14;100.00;100668.56;5091337;28;20073;-66
2023/11/29 02:58:48;;;;;;;10.07;7.03;;;;;;;-3.15;100.00;100656.44;5091294;28;20059;-65
2023/11/29 03:01:13;;;;;;;9.33;6.73;;;;;;;-3.16;100.00;100662.56;5089747;28;20554;-66
2023/11/29 03:03:40;;;;;;;9.87;7.07;;;;;;;-3.57;100.00;100602.16;5091067;28;20177;-64
2023/11/29 03:06:08;;;;;;;8.13;6.50;;;;;;;-3.13;100.00;100678.03;5091195;28;20503;-63
2023/11/29 03:08:34;;;;;;;9.20;6.00;;;;;;;-3.23;100.00;100663.78;5091295;28;20036;-63
2023/11/29 03:11:01;;;;;;;12.10;7.32;;;;;;;-3.15;100.00;100672.91;5091236;28;20069;-66
2023/11/29 03:13:27;;;;;;;6.97;5.43;;;;;;;-3.19;100.00;100687.00;5089780;28;20043;-66
2023/11/29 03:15:53;;;;;;;7.90;6.07;;;;;;;-3.23;100.00;100669.00;5091025;28;20495;-63
2023/11/29 03:18:18;;;;;;;8.63;6.70;;;;;;;-3.21;100.00;100677.56;5091948;28;20034;-64
2023/11/29 03:20:44;;;;;;;8.50;6.40;;;;;;;-3.07;100.00;100679.50;5095039;28;20024;-64
2023/11/29 03:23:11;;;;;;;7.90;5.70;;;;;;;-3.11;100.00;100673.59;5094690;28;20035;-64
2023/11/29 03:25:36;;;;;;;10.18;7.20;;;;;;;-3.18;100.00;100678.28;5094823;28;20043;-65
2023/11/29 03:28:02;;;;;;;10.10;6.10;;;;;;;-3.52;100.00;100610.56;5094721;28;20032;-64
2023/11/29 03:30:27;;;;;;;11.53;8.03;;;;;;;-3.01;100.00;100687.84;5094657;28;20383;-64
2023/11/29 03:32:53;;;;;;;9.17;7.10;;;;;;;-3.18;100.00;100659.19;5094760;28;20495;-64
2023/11/29 03:35:19;;;;;;;8.67;6.47;;;;;;;-3.28;100.00;100664.03;5094731;28;20586;-69
2023/11/29 03:37:44;;;;;;;7.10;6.00;;;;;;;-3.38;100.00;100657.59;5094559;28;20071;-64
2023/11/29 03:40:10;;;;;;;9.00;7.10;;;;;;;-3.44;100.00;100666.56;5093161;28;20028;-64
2023/11/29 03:42:36;;;;;;;11.13;7.07;;;;;;;-3.62;100.00;100638.81;5094492;28;20040;-64
2023/11/29 03:45:02;;;;;;;10.93;6.60;;;;;;;-3.75;100.00;100641.19;5094397;28;20040;-66
2023/11/29 03:47:30;;;;;;;;;;;;;;;-3.37;100.00;100713.97;5093824;28;20039;-67
2023/11/29 03:49:55;;;;;;;8.50;6.53;;;;;;;-3.55;100.00;100683.59;5094251;28;20302;-64
2023/11/29 03:52:24;;;;;;;8.07;6.93;;;;;;;-3.56;100.00;100690.56;5094386;28;20043;-64
2023/11/29 03:54:50;;;;;;;13.30;8.27;;;;;;;-3.60;100.00;100686.44;5094313;28;20039;-66
2023/11/29 03:57:16;;;;;;;10.98;8.18;;;;;;;-3.51;100.00;100698.16;5094008;28;20036;-64
2023/11/29 03:59:42;;;;;;;9.13;7.17;;;;;;;-3.56;100.00;100700.16;5094302;28;20479;-66
2023/11/29 04:02:08;;;;;;;9.43;6.57;;;;;;;-3.41;100.00;100716.81;5094408;28;20066;-66
2023/11/29 04:04:33;;;;;;;8.20;6.40;;;;;;;-3.61;100.00;100695.16;5093939;28;20515;-65
2023/11/29 04:07:02;;;;;;;8.07;6.30;;;;;;;-3.40;100.00;100724.53;5094131;28;20044;-64
2023/11/29 04:09:28;;;;;;;;;;;;;;;-3.25;100.00;100721.16;5094877;28;20520;-65
2023/11/29 04:11:53;;;;;;;10.70;6.73;;;;;;;-3.89;100.00;100629.75;5093999;28;19916;-65
2023/11/29 04:14:19;;;;;;;11.77;8.07;;;;;;;-3.34;100.00;100724.22;5093710;28;20035;-64
2023/11/29 04:16:45;;;;;;;10.47;7.27;;;;;;;-3.61;100.00;100705.59;5093749;28;20140;-66
2023/11/29 04:19:10;;;;;;;12.45;7.47;;;;;;;-3.60;100.00;100722.88;5094104;28;20028;-65
2023/11/29 04:21:36;;;;;;;10.07;7.97;;;;;;;-3.63;100.00;100717.81;5093767;28;20044;-64
2023/11/29 04:24:02;;;;;;;11.37;8.13;;;;;;;-3.82;100.00;100688.38;5093685;28;20050;-64
2023/11/29 04:26:36;;;;;;;9.57;7.35;;;;;;;-3.54;100.00;100722.59;5093533;28;20044;-66
2023/11/29 04:29:04;;;;;;;8.65;7.03;;;;;;;-3.53;100.00;100707.81;5093305;28;20181;-65
2023/11/29 04:31:31;;;;;;;9.73;6.82;;;;;;;-3.62;100.00;100714.31;5093079;28;20087;-65
2023/11/29 04:33:57;;;;;;;9.05;6.28;;;;;;;-3.70;100.00;100703.44;5093403;28;20032;-64
2023/11/29 04:36:28;;;;;;;12.98;9.73;;;;;;;-3.61;100.00;100720.34;5093444;28;20513;-66
2023/11/29 04:38:54;;;;;;;8.43;7.05;;;;;;;-3.49;100.00;100740.56;5092181;28;20534;-66
2023/11/29 04:41:21;;;;;;;9.87;6.10;;;;;;;-3.44;100.00;100755.09;5093293;28;20044;-66
2023/11/29 04:43:48;;;;;;;10.20;6.55;;;;;;;-3.56;100.00;100745.25;5093555;28;20035;-67
2023/11/29 04:46:17;;;;;;;11.05;7.20;;;;;;;-3.61;100.00;100744.63;5092799;28;20131;-64
2023/11/29 04:48:44;;;;;;;;;;;;;;;-3.57;100.00;100759.19;5075692;28;20047;-66
2023/11/29 04:51:12;;;;;;;8.85;6.70;;;;;;;-3.82;100.00;100743.03;5091757;28;19926;-65
2023/11/29 04:53:38;;;;;;;9.05;7.00;;;;;;;-3.78;100.00;100771.44;5092834;28;20035;-67
2023/11/29 04:56:05;;;;;;;8.82;6.28;;;;;;;-3.89;100.00;100754.66;5093786;28;20517;-65
2023/11/29 04:58:33;;;;;;;10.48;7.53;;;;;;;-3.79;100.00;100763.69;5094361;28;20044;-66
2023/11/29 05:00:59;;;;;;;10.68;6.43;;;;;;;-3.60;100.00;100784.50;5093439;28;20123;-67
2023/11/29 05:03:28;;;;;;;8.18;6.45;;;;;;;-3.76;100.00;100766.16;5093044;28;20048;-63
2023/11/29 05:05:53;;;;;;;7.70;5.95;;;;;;;-3.88;100.00;100753.72;5091448;28;20047;-63
2023/11/29 05:08:20;;;;;;;11.37;6.63;;;;;;;-3.78;100.00;100761.03;5093059;28;20031;-64
2023/11/29 05:10:45;;;;;;;9.88;6.72;;;;;;;-3.66;100.00;100775.25;5093766;28;20478;-70
2023/11/29 05:13:11;;;;;;;10.83;6.47;;;;;;;-3.90;100.00;100766.81;5093013;28;20036;-66
2023/11/29 05:15:36;;;;;;;10.20;6.87;;;;;;;-3.89;100.00;100783.25;5092852;28;20039;-66
2023/11/29 05:18:03;;;;;;;7.83;6.20;;;;;;;-4.06;100.00;100771.84;5092854;28;20039;-67
2023/11/29 05:20:29;;;;;;;10.38;7.60;;;;;;;-4.01;100.00;100794.25;5092439;28;20031;-65
2023/11/29 05:22:54;;;;;;;9.40;6.40;;;;;;;-4.15;100.00;100767.09;5108049;28;20181;-64
2023/11/29 05:25:20;;;;;;;7.70;6.13;;;;;;;-3.95;100.00;100788.75;5092156;28;20036;-64
2023/11/29 05:27:46;;;;;;;10.33;7.30;;;;;;;-3.91;100.00;100800.69;5107871;28;20039;-63
2023/11/29 05:30:12;;;;;;;10.80;6.85;;;;;;;-3.79;100.00;100813.13;5100778;28;20047;-64
2023/11/29 05:32:37;;;;;;;10.03;6.93;;;;;;;-3.96;100.00;100797.47;5111987;28;20518;-64
2023/11/29 05:35:03;;;;;;;11.03;6.77;;;;;;;-3.98;100.00;100814.91;5111823;28;20042;-67
2023/11/29 05:37:30;;;;;;;10.02;6.40;;;;;;;-4.33;100.00;100747.13;5111995;28;20031;-64
2023/11/29 05:39:56;;;;;;;10.63;6.97;;;;;;;-4.03;100.00;100801.28;5109361;28;20503;-64
2023/11/29 05:42:22;;;;;;;9.45;6.63;;;;;;;-3.80;100.00;100821.84;5108852;28;20120;-66
2023/11/29 05:44:49;;;;;;;10.52;7.57;;;;;;;-3.67;100.00;100836.03;5111251;28;20070;-65
2023/11/29 05:47:16;;;;;;;8.20;6.32;;;;;;;-3.78;100.00;100843.44;5111742;28;20516;-61
2023/11/29 05:49:42;;;;;;;8.82;5.95;;;;;;;-3.86;100.00;100840.38;5111640;28;20044;-65
2023/11/29 05:52:07;;;;;;;8.20;6.33;;;;;;;-4.08;100.00;100799.69;5113236;28;20030;-63
2023/11/29 05:54:33;;;;;;;19.33;11.10;;;;;;;-4.01;100.00;100815.91;5113587;28;20027;-63
2023/11/29 05:56:59;;;;;;;16.40;8.20;;;;;;;-3.91;100.00;100831.94;5111520;28;20031;-63
2023/11/29 05:59:24;;;;;;;12.80;8.07;;;;;;;-3.72;100.00;100852.75;5111875;28;20085;-63
2023/11/29 06:01:51;;;;;;;13.67;9.20;;;;;;;-3.95;100.00;100806.97;5109988;28;20031;-64
2023/11/29 06:04:18;;;;;;;10.68;8.30;;;;;;;-3.72;100.00;100844.97;5111777;28;20097;-62
2023/11/29 06:06:43;;;;;;;8.00;6.28;;;;;;;-4.14;100.00;100802.56;5111485;28;20043;-63
2023/11/29 06:09:09;;;;;;;9.70;7.90;;;;;;;-4.18;100.00;100819.22;5111418;28;20112;-64
2023/11/29 06:11:36;;;;;;;16.83;9.83;;;;;;;-3.87;100.00;100864.69;5111646;28;20403;-61
2023/11/29 06:14:03;;;;;;;25.42;12.40;;;;;;;-3.90;100.00;100833.63;5111339;28;20322;-65
2023/11/29 06:16:29;;;;;;;22.15;10.30;;;;;;;-3.76;100.00;100837.28;5110865;28;20487;-63
2023/11/29 06:18:55;;;;;;;26.37;12.00;;;;;;;-3.78;100.00;100833.03;5111459;28;20039;-65
2023/11/29 06:21:20;;;;;;;40.40;16.93;;;;;;;-3.71;100.00;100849.25;5111549;28;20028;-64
2023/11/29 06:23:46;;;;;;;23.37;12.43;;;;;;;-3.68;100.00;100847.34;5111597;28;20067;-62
2023/11/29 06:26:12;;;;;;;17.93;9.63;;;;;;;-3.68;100.00;100860.34;5111042;28;20092;-62
2023/11/29 06:28:40;;;;;;;23.83;13.23;;;;;;;-3.66;100.00;100879.34;5111470;28;20047;-63
2023/11/29 06:31:08;;;;;;;14.52;9.88;;;;;;;-3.68;100.00;100888.16;5111051;28;20399;-63
2023/11/29 06:33:34;;;;;;;15.88;10.48;;;;;;;-3.73;100.00;100872.75;5111167;28;20146;-62
2023/11/29 06:36:02;;;;;;;20.37;11.33;;;;;;;-3.63;100.00;100900.03;5111470;28;20507;-62
2023/11/29 06:38:28;;;;;;;19.48;11.35;;;;;;;-4.06;100.00;100847.28;5111135;28;20036;-64
2023/11/29 06:40:54;;;;;;;14.83;10.03;;;;;;;-3.78;100.00;100895.50;5111132;28;20539;-63
2023/11/29 06:43:19;;;;;;;16.70;11.25;;;;;;;-3.94;100.00;100873.69;5109883;28;20040;-66
2023/11/29 06:45:48;;;;;;;11.57;8.90;;;;;;;-4.09;100.00;100844.81;5111164;28;20509;-63
2023/11/29 06:48:14;;;;;;;11.32;8.50;;;;;;;-3.72;100.00;100910.88;5108545;28;20039;-65
2023/11/29 06:50:39;;;;;;;11.87;7.53;;;;;;;-3.82;100.00;100912.16;5111308;28;20036;-64
2023/11/29 06:53:07;;;;;;;9.23;7.20;;;;;;;-3.86;100.00;100897.59;5110658;28;20501;-63
2023/11/29 06:55:32;;;;;;;15.45;8.82;;;;;;;-3.99;100.00;100891.25;5115533;28;20031;-66
2023/11/29 06:57:58;;;;;;;10.00;7.90;;;;;;;-3.82;100.00;100927.78;5115810;28;20039;-67
2023/11/29 07:00:25;;;;;;;10.48;7.25;;;;;;;-3.89;100.00;100910.75;5115889;28;20371;-64
2023/11/29 07:02:51;;;;;;;8.43;5.93;;;;;;;-3.93;100.00;100922.22;5115209;28;20059;-64
2023/11/29 07:05:17;;;;;;;10.40;6.90;;;;;;;-3.86;100.00;100936.63;5115148;28;20059;-63
2023/11/29 07:07:43;;;;;;;8.85;6.07;;;;;;;-4.13;99.25;100923.91;5115641;27;20042;-64
2023/11/29 07:10:09;;;;;;;10.97;8.57;;;;;;;-4.24;100.00;100944.31;5113806;28;20410;-63
2023/11/29 07:12:35;;;;;;;9.43;6.43;;;;;;;-4.46;100.00;100933.97;5115068;28;20089;-66
2023/11/29 07:15:01;;;;;;;8.33;5.83;;;;;;;-4.35;100.00;100956.91;5113219;28;20032;-66
2023/11/29 07:17:31;;;;;;;8.85;6.20;;;;;;;-4.62;100.00;100914.72;5115274;28;20063;-62
2023/11/29 07:19:57;;;;;;;6.20;5.07;;;;;;;-4.48;100.00;100935.78;5114948;28;20062;-64
2023/11/29 07:22:25;;;;;;;7.87;5.83;;;;;;;-4.39;100.00;100935.41;5113557;27;20061;-65
2023/11/29 07:24:55;;;;;;;8.75;6.00;;;;;;;-4.16;100.00;100967.41;5114638;28;20126;-66
2023/11/29 07:27:21;;;;;;;6.65;5.25;;;;;;;-4.28;98.00;100953.16;5114538;28;20122;-64
2023/11/29 07:29:46;;;;;;;5.80;4.80;;;;;;;-4.26;97.82;100959.16;5114390;27;20046;-66
2023/11/29 07:32:14;;;;;;;5.30;4.70;;;;;;;-4.25;96.35;100971.25;5113272;28;20045;-64
2023/11/29 07:34:43;;;;;;;7.43;5.15;;;;;;;-4.24;97.80;100964.28;5114408;28;20032;-64
2023/11/29 07:37:09;;;;;;;5.85;4.63;;;;;;;-4.51;97.94;100935.06;5113564;28;20039;-65
2023/11/29 07:39:35;;;;;;;5.80;5.23;;;;;;;-4.35;98.64;100967.31;5114113;28;20048;-66
2023/11/29 07:42:00;;;;;;;8.17;5.53;;;;;;;-4.43;97.41;100964.19;5114493;28;20028;-66
2023/11/29 07:44:26;;;;;;;7.37;5.53;;;;;;;-4.58;97.84;100957.03;5114175;28;20057;-61
2023/11/29 07:46:51;;;;;;;6.53;4.63;;;;;;;-4.86;98.55;100907.91;5114712;28;20034;-64
2023/11/29 07:49:17;;;;;;;7.90;7.07;;;;;;;-4.33;98.84;100994.13;5114592;28;20031;-64
2023/11/29 07:51:46;;;;;;;9.97;6.70;;;;;;;-4.40;98.64;100948.47;5115038;28;20035;-63
2023/11/29 07:54:12;;;;;;;7.38;6.28;;;;;;;-4.08;98.01;100971.38;5115102;28;20036;-66
2023/11/29 07:56:41;;;;;;;10.32;7.38;;;;;;;-4.16;97.05;100950.03;5114354;28;20047;-68
2023/11/29 07:59:07;;;;;;;7.70;5.68;;;;;;;-4.00;95.59;100984.06;5114692;28;20031;-70
2023/11/29 08:01:34;;;;;;;8.43;5.57;;;;;;;-4.12;96.03;100975.00;5114181;28;20039;-67
2023/11/29 08:04:01;;;;;;;12.35;6.40;;;;;;;-4.19;96.44;100965.78;5114381;28;20048;-69
2023/11/29 08:06:28;;;;;;;8.13;5.30;;;;;;;-4.10;97.27;100962.78;5112373;28;20101;-65
2023/11/29 08:08:55;;;;;;;8.82;5.32;;;;;;;-4.13;95.65;100962.06;5114717;28;20066;-68
2023/11/29 08:11:21;;;;;;;8.55;5.97;;;;;;;-4.14;96.24;100970.78;5114318;28;20062;-69
2023/11/29 08:13:47;;;;;;;8.87;5.13;;;;;;;-4.28;96.00;100957.53;5113996;27;20105;-68
2023/11/29 08:16:13;;;;;;;6.22;4.30;;;;;;;-4.10;95.95;100986.19;5113836;28;20047;-66
2023/11/29 08:18:38;;;;;;;5.80;4.47;;;;;;;-4.04;94.14;100997.28;5113759;28;20080;-70
2023/11/29 08:21:04;;;;;;;7.53;5.33;;;;;;;-4.01;96.07;100986.75;5113677;28;20391;-70
2023/11/29 08:23:29;;;;;;;11.40;7.80;;;;;;;-4.10;96.83;100962.78;5113918;28;20039;-72
2023/11/29 08:25:55;;;;;;;6.33;5.47;;;;;;;-4.60;96.45;100858.34;5112275;28;20195;-70
2023/11/29 08:28:21;;;;;;;7.57;5.20;;;;;;;-3.68;97.25;100974.88;5113722;28;20047;-72
2023/11/29 08:30:46;;;;;;;12.07;5.90;;;;;;;-3.61;94.68;100972.84;5112459;28;20038;-67
2023/11/29 08:33:12;;;;;;;8.90;5.57;;;;;;;-3.90;94.36;100922.91;5113756;28;20044;-70
2023/11/29 08:35:38;;;;;;;6.73;5.27;;;;;;;-3.60;94.15;100957.16;5112729;28;20038;-68
2023/11/29 08:38:03;;;;;;;7.50;6.60;;;;;;;-3.45;94.05;100981.69;5114539;28;20035;-71
2023/11/29 08:40:29;;;;;;;17.27;11.03;;;;;;;-3.48;94.45;100961.81;5113302;28;20039;-73
2023/11/29 08:42:57;;;;;;;10.63;6.77;;;;;;;-3.40;93.19;100978.88;5117025;28;20036;-67
2023/11/29 08:45:22;;;;;;;16.83;7.72;;;;;;;-3.44;92.35;100988.59;5115479;28;20039;-67
2023/11/29 08:47:48;;;;;;;13.93;6.60;;;;;;;-3.49;92.94;100993.97;5109844;28;20065;-71
2023/11/29 08:50:14;;;;;;;11.03;7.67;;;;;;;-3.52;92.89;101004.53;5113701;28;20057;-71
2023/11/29 08:52:42;;;;;;;20.67;8.77;;;;;;;-3.46;94.36;101006.88;5113860;28;20078;-66
2023/11/29 08:55:09;;;;;;;11.82;7.40;;;;;;;-3.36;94.69;101003.84;5113247;28;20034;-70
2023/11/29 08:57:35;;;;;;;19.35;10.90;;;;;;;-3.86;93.10;100918.41;5112058;28;20041;-68
2023/11/29 09:00:01;;;;;;;10.98;7.97;;;;;;;-3.38;94.04;101001.31;5114122;28;20046;-70
2023/11/29 09:02:29;;;;;;;9.80;6.73;;;;;;;-3.43;93.68;101000.69;5102171;28;20036;-64
2023/11/29 09:04:56;;;;;;;10.27;7.28;;;;;;;-3.66;92.98;100965.25;5113776;28;20106;-66
2023/11/29 09:07:22;;;;;;;11.07;6.65;;;;;;;-3.71;94.00;100969.81;5120536;28;20096;-66
2023/11/29 09:09:48;;;;;;;11.47;6.83;;;;;;;-3.41;94.59;101027.50;5124445;28;20065;-67
2023/11/29 09:12:17;;;;;;;8.85;7.40;;;;;;;-3.42;93.52;101023.22;5125768;28;20057;-70
2023/11/29 09:14:43;;;;;;;9.43;6.40;;;;;;;-3.61;92.29;100997.13;5121502;28;20047;-67
2023/11/29 09:17:10;;;;;;;5.90;5.22;;;;;;;-4.00;93.63;100936.41;5113139;28;20027;-69
2023/11/29 09:19:35;;;;;;;8.38;5.70;;;;;;;-3.58;93.19;101016.97;5112652;28;20047;-68
2023/11/29 09:22:05;;;;;;;6.73;6.03;;;;;;;-3.70;93.81;101017.50;5112747;28;20057;-68
2023/11/29 09:24:31;;;;;;;7.35;5.90;;;;;;;-3.74;94.38;100995.97;5112421;28;20036;-69
2023/11/29 09:26:56;;;;;;;7.03;5.53;;;;;;;-3.87;94.62;100960.97;5111281;28;20084;-66
2023/11/29 09:29:25;;;;;;;7.50;5.70;;;;;;;-3.69;93.28;100980.16;5107150;28;20039;-65
2023/11/29 09:31:52;;;;;;;11.27;6.28;;;;;;;-3.46;92.60;101016.44;5104015;28;20106;-65
2023/11/29 09:34:17;;;;;;;13.43;6.00;;;;;;;-3.45;93.89;101008.56;5103507;28;20033;-67
2023/11/29 09:36:44;;;;;;;9.33;5.90;;;;;;;-3.31;94.67;101020.13;5109541;28;20122;-67
2023/11/29 09:39:13;;;;;;;15.93;5.95;;;;;;;-3.30;93.80;101027.03;5111704;28;20043;-65
2023/11/29 09:41:39;;;;;;;14.80;7.00;;;;;;;-3.56;93.83;100974.34;5109694;28;20381;-68
2023/11/29 09:44:06;;;;;;;11.95;7.30;;;;;;;-3.48;92.19;101000.88;5110610;28;20398;-71
2023/11/29 09:46:32;;;;;;;17.35;9.07;;;;;;;-3.55;93.20;100996.00;5111715;28;20547;-66
2023/11/29 09:48:59;;;;;;;11.30;8.53;;;;;;;-3.60;93.39;101006.63;5112519;28;20038;-67
2023/11/29 09:51:25;;;;;;;13.77;9.32;;;;;;;-4.07;94.58;100946.19;5110441;28;20385;-67
2023/11/29 09:53:50;;;;;;;13.17;9.37;;;;;;;-3.59;95.51;101026.53;5107507;28;20047;-70
2023/11/29 09:56:17;;;;;;;18.20;11.00;;;;;;;-3.70;96.65;101013.16;5111842;28;20065;-66
2023/11/29 09:58:43;;;;;;;15.80;8.88;;;;;;;-3.51;97.03;101024.44;5111669;28;20474;-65
2023/11/29 10:01:09;;;;;;;15.07;8.60;;;;;;;-3.46;96.23;101026.88;5111907;28;20070;-65
2023/11/29 10:03:37;;;;;;;15.90;8.83;;;;;;;-3.53;96.35;101021.06;5111685;28;20130;-71
2023/11/29 10:06:04;;;;;;;15.02;8.55;;;;;;;-3.57;97.34;101009.09;5111287;28;20566;-68
2023/11/29 10:08:32;;;;;;;17.08;8.75;;;;;;;-3.50;96.89;100994.03;5111403;28;20448;-67
2023/11/29 10:11:01;;;;;;;11.15;8.25;;;;;;;-3.45;94.62;101008.56;5108914;28;20513;-71
2023/11/29 10:13:28;;;;;;;11.38;7.63;;;;;;;-3.40;94.95;101036.16;5112278;28;20463;-72
2023/11/29 10:15:55;;;;;;;9.75;7.43;;;;;;;-3.55;94.67;101028.09;5111513;28;20561;-67
2023/11/29 10:18:21;;;;;;;12.82;7.80;;;;;;;-3.59;96.40;101031.75;5111311;28;20035;-69
2023/11/29 10:20:49;;;;;;;10.20;6.97;;;;;;;-3.68;96.26;101011.31;5111300;28;20114;-68
2023/11/29 10:23:16;;;;;;;10.85;7.40;;;;;;;-3.55;96.09;101028.09;5109990;28;20027;-69
2023/11/29 10:25:46;;;;;;;9.93;7.88;;;;;;;-3.53;96.72;101041.03;5109538;28;20066;-69
2023/11/29 10:28:13;;;;;;;12.57;6.90;;;;;;;-3.67;96.25;101018.22;5110340;28;20069;-66
2023/11/29 10:30:40;;;;;;;11.50;7.72;;;;;;;-3.48;97.83;101031.25;5111433;28;20066;-68
2023/11/29 10:33:11;;;;;;;13.88;7.53;;;;;;;-3.60;96.76;101014.44;5110692;28;20040;-66
2023/11/29 10:35:46;;;;;;;10.98;7.55;;;;;;;-3.68;96.23;101018.28;5107632;28;20439;-70
2023/11/29 10:38:21;;;;;;;12.18;7.22;;;;;;;-3.58;96.87;101043.00;5111201;28;20482;-66
2023/11/29 10:40:49;;;;;;;12.40;7.18;;;;;;;-3.77;98.00;100983.06;5110151;28;20040;-70
2023/11/29 10:43:28;;;;;;;13.13;7.03;;;;;;;-3.52;98.83;100996.72;5110505;28;20088;-65
2023/11/29 10:46:10;;;;;;;12.60;7.72;;;;;;;-3.18;97.43;101029.06;5106451;28;20023;-67
2023/11/29 10:48:43;;;;;;;14.57;7.45;;;;;;;-3.18;96.77;101040.38;5111389;28;20073;-66
2023/11/29 10:51:12;;;;;;;15.05;8.15;;;;;;;-3.48;96.01;101002.63;5111378;28;20444;-68
2023/11/29 10:53:42;;;;;;;17.70;6.97;;;;;;;-3.58;97.19;100989.19;5106041;28;20066;-67
2023/11/29 10:56:13;;;;;;;13.50;8.13;;;;;;;-3.35;96.91;101021.19;5110785;28;20499;-67
2023/11/29 10:59:05;;;;;;;13.05;8.30;;;;;;;-3.44;95.66;101004.22;5108139;28;20142;-65
2023/11/29 11:01:36;;;;;;;11.55;8.77;;;;;;;-3.57;96.46;100988.25;5098741;28;20031;-64
2023/11/29 11:04:10;;;;;;;14.70;9.55;;;;;;;-3.38;96.17;101029.13;5108693;28;20131;-66
2023/11/29 11:06:39;;;;;;;13.10;8.68;;;;;;;-3.37;96.16;101044.69;5110840;28;20050;-66
2023/11/29 11:09:28;;;;;;;13.90;9.20;;;;;;;-3.34;97.10;101038.50;5111200;28;20054;-69
2023/11/29 11:11:54;;;;;;;13.68;8.52;;;;;;;-3.40;96.15;101047.41;5110859;28;20040;-72
2023/11/29 11:14:30;;;;;;;13.57;8.73;;;;;;;-3.48;96.37;101029.50;5109884;28;20076;-65